Time;durP1;ratioP1;P1;durP2;ratioP2;P2;SDS_P1;SDS_P2;PMS_P1;PMS_P2;Temp;Humidity;BMP_temperature;BMP_pressure;BME280_temperature;BME280_humidity;BME280_pressure;Samples;Min_cycle;Max_cycle;Signal;HPM_P1;HPM_P2
2022/01/14 00:00:09;;;;;;;43.80;23.92;;;2.20;99.90;;;;;;5052400;28;20108;-54
2022/01/14 00:02:53;;;;;;;40.00;22.48;;;2.20;99.90;;;;;;5054687;28;20519;-64
2022/01/14 00:05:38;;;;;;;36.50;21.00;;;2.50;99.90;;;;;;5041784;28;20052;-55
2022/01/14 00:08:22;;;;;;;40.92;23.95;;;2.60;99.90;;;;;;5053087;28;20426;-55
2022/01/14 00:11:14;;;;;;;39.40;23.53;;;2.40;99.90;;;;;;5050416;28;20106;-56
2022/01/14 00:16:50;;;;;;;45.25;23.88;;;2.30;99.90;;;;;;5058542;28;20108;-59
2022/01/14 00:19:35;;;;;;;42.50;23.52;;;2.40;99.90;;;;;;5052875;28;20036;-55
2022/01/14 00:22:19;;;;;;;44.17;24.20;;;2.40;99.90;;;;;;5051934;28;20389;-57
2022/01/14 00:33:55;;;;;;;45.13;24.85;;;2.40;99.90;;;;;;5060981;28;20065;-59
2022/01/14 00:36:39;;;;;;;41.88;22.70;;;2.40;99.90;;;;;;5057887;28;20533;-59
2022/01/14 00:39:24;;;;;;;;;;;2.30;99.90;;;;;;5040614;28;20043;-62
2022/01/14 00:42:08;;;;;;;46.42;24.73;;;2.20;99.90;;;;;;5060952;28;20412;-57
2022/01/14 00:44:53;;;;;;;48.58;24.55;;;2.10;99.90;;;;;;5048890;28;20519;-60
2022/01/14 00:47:37;;;;;;;40.05;24.05;;;2.00;99.90;;;;;;5055936;28;20047;-60
2022/01/14 00:50:22;;;;;;;44.95;24.95;;;2.10;99.90;;;;;;5058564;28;20102;-55
2022/01/14 00:53:06;;;;;;;41.40;22.65;;;2.10;99.90;;;;;;5062014;28;20039;-57
2022/01/14 00:56:05;;;;;;;39.10;22.10;;;2.20;99.90;;;;;;5053447;28;20086;-59
2022/01/14 01:01:56;;;;;;;38.92;22.23;;;2.50;99.90;;;;;;5050580;28;20079;-56
2022/01/14 01:04:40;;;;;;;37.28;22.95;;;2.40;99.90;;;;;;5052802;28;20029;-61
2022/01/14 01:07:25;;;;;;;42.03;23.42;;;2.40;99.90;;;;;;5051853;28;20079;-58
2022/01/14 01:10:10;;;;;;;41.20;24.10;;;2.40;99.90;;;;;;5043323;28;20037;-57
2022/01/14 01:13:03;;;;;;;39.05;23.45;;;2.50;99.90;;;;;;5053344;28;20098;-57
2022/01/14 01:15:51;;;;;;;40.33;23.38;;;2.50;99.90;;;;;;5041009;28;20047;-59
2022/01/14 01:18:35;;;;;;;42.58;22.88;;;2.50;99.90;;;;;;5049539;28;20083;-58
2022/01/14 01:21:19;;;;;;;37.38;22.58;;;2.50;99.90;;;;;;5051454;28;20063;-57
2022/01/14 01:24:04;;;;;;;37.63;23.30;;;2.50;99.90;;;;;;5044050;28;20137;-58
2022/01/14 01:26:50;;;;;;;;;;;2.50;99.90;;;;;;5032208;28;20417;-58
2022/01/14 01:32:20;;;;;;;42.55;23.15;;;2.40;99.90;;;;;;5046210;28;20507;-57
2022/01/14 01:35:05;;;;;;;42.38;23.52;;;2.30;99.90;;;;;;5038619;28;20110;-58
2022/01/14 01:37:50;;;;;;;45.25;25.75;;;2.40;99.90;;;;;;5054625;28;20032;-56
2022/01/14 01:40:35;;;;;;;45.25;25.50;;;2.20;99.90;;;;;;5054439;28;20036;-59
2022/01/14 01:43:24;;;;;;;42.90;23.38;;;2.40;99.90;;;;;;5052292;28;20113;-56
2022/01/14 01:46:08;;;;;;;42.80;23.52;;;2.50;99.90;;;;;;5051411;28;20708;-57
2022/01/14 01:48:53;;;;;;;49.80;25.47;;;2.30;99.90;;;;;;5051502;28;20067;-58
2022/01/14 01:51:38;;;;;;;38.85;24.13;;;2.40;99.90;;;;;;5052796;28;20552;-58
2022/01/14 01:54:22;;;;;;;;;;;2.20;99.90;;;;;;5037957;28;20060;-56
2022/01/14 01:57:07;;;;;;;45.25;23.98;;;2.00;99.90;;;;;;5052787;28;19924;-57
2022/01/14 01:59:51;;;;;;;49.65;25.65;;;2.00;99.90;;;;;;5054418;28;20079;-54
2022/01/14 02:02:36;;;;;;;40.45;24.27;;;1.90;99.90;;;;;;5056085;28;20040;-54
2022/01/14 02:05:22;;;;;;;38.95;22.85;;;1.90;99.90;;;;;;5038651;28;21680;-56
2022/01/14 02:08:06;;;;;;;50.30;26.30;;;2.00;99.90;;;;;;5056608;28;20071;-58
2022/01/14 02:10:50;;;;;;;38.45;21.90;;;2.00;99.90;;;;;;5055606;28;20429;-59
2022/01/14 02:13:35;;;;;;;44.42;24.20;;;2.00;99.90;;;;;;5043786;28;20044;-59
2022/01/14 02:16:32;;;;;;;47.63;27.83;;;2.00;99.90;;;;;;5056600;28;20087;-56
2022/01/14 02:19:23;;;;;;;41.97;24.73;;;1.90;99.90;;;;;;5055550;28;20098;-60
2022/01/14 02:22:14;;;;;;;44.60;25.08;;;2.00;99.90;;;;;;5055244;28;20032;-60
2022/01/14 02:25:04;;;;;;;46.63;26.40;;;2.00;99.90;;;;;;5055925;28;20634;-61
2022/01/14 02:27:50;;;;;;;42.25;23.73;;;2.10;99.90;;;;;;5056378;28;20401;-60
2022/01/14 02:30:40;;;;;;;47.65;25.70;;;2.20;99.90;;;;;;5056663;28;20111;-63
2022/01/14 02:33:24;;;;;;;42.75;24.58;;;2.30;99.90;;;;;;5055117;28;20044;-59
2022/01/14 02:36:09;;;;;;;40.80;23.50;;;2.30;99.90;;;;;;5054972;28;20044;-57
2022/01/14 02:38:54;;;;;;;40.35;24.13;;;2.30;99.90;;;;;;5056701;28;20438;-59
2022/01/14 02:41:40;;;;;;;41.60;24.17;;;2.30;99.90;;;;;;5044206;28;20091;-59
2022/01/14 02:44:27;;;;;;;44.28;24.02;;;2.30;99.90;;;;;;5056070;28;20083;-57
2022/01/14 02:47:11;;;;;;;39.20;22.60;;;2.40;99.90;;;;;;5055241;28;20052;-59
2022/01/14 02:49:55;;;;;;;42.13;23.93;;;2.30;99.90;;;;;;5055700;28;20040;-59
2022/01/14 02:52:53;;;;;;;40.10;22.45;;;2.30;99.90;;;;;;5055126;28;20318;-59
2022/01/14 02:55:43;;;;;;;40.95;23.52;;;2.30;99.90;;;;;;5054693;28;20432;-58
2022/01/14 02:58:29;;;;;;;35.85;20.92;;;2.30;99.90;;;;;;5056256;28;20048;-60
2022/01/14 03:01:18;;;;;;;40.63;24.05;;;2.30;99.90;;;;;;5055250;28;20040;-59
2022/01/14 03:04:03;;;;;;;36.65;21.85;;;2.30;99.90;;;;;;5055596;28;20552;-60
2022/01/14 03:06:48;;;;;;;40.63;22.83;;;2.30;99.90;;;;;;5055642;28;20112;-59
2022/01/14 03:09:32;;;;;;;;;;;2.40;99.90;;;;;;5053089;28;20036;-60
2022/01/14 03:12:17;;;;;;;38.53;21.42;;;2.40;99.90;;;;;;5049163;28;19970;-60
2022/01/14 03:15:01;;;;;;;39.10;22.27;;;2.40;99.90;;;;;;5056440;28;20516;-60
2022/01/14 03:17:46;;;;;;;;;;;2.40;99.90;;;;;;5056446;28;20082;-61
2022/01/14 03:20:50;;;;;;;42.00;22.58;;;2.30;99.90;;;;;;5055695;28;19954;-57
2022/01/14 03:23:42;;;;;;;42.95;23.27;;;2.30;99.90;;;;;;5055207;28;20075;-58
2022/01/14 03:26:27;;;;;;;47.17;23.90;;;2.30;99.90;;;;;;5055906;28;20039;-57
2022/01/14 03:29:12;;;;;;;41.17;24.88;;;2.30;99.90;;;;;;5055126;28;20040;-57
2022/01/14 03:31:57;;;;;;;42.17;24.33;;;2.20;99.90;;;;;;5054895;28;20075;-61
2022/01/14 03:34:41;;;;;;;41.53;22.95;;;2.20;99.90;;;;;;5055494;28;20110;-59
2022/01/14 03:37:26;;;;;;;41.38;23.83;;;2.20;99.90;;;;;;5054716;28;20062;-61
2022/01/14 03:40:10;;;;;;;42.67;25.70;;;2.20;99.90;;;;;;5055225;28;20067;-60
2022/01/14 03:42:55;;;;;;;45.03;24.30;;;2.20;99.90;;;;;;5054634;28;20047;-60
2022/01/14 03:45:39;;;;;;;44.72;25.35;;;2.10;99.90;;;;;;5054721;28;20044;-58
2022/01/14 03:48:24;;;;;;;45.22;25.38;;;1.90;99.90;;;;;;5054644;28;20048;-60
2022/01/14 03:51:09;;;;;;;;;;;1.90;99.90;;;;;;5053803;28;20112;-60
2022/01/14 03:53:53;;;;;;;45.22;24.23;;;1.80;99.90;;;;;;5054765;28;19920;-60
2022/01/14 03:56:37;;;;;;;45.38;26.13;;;1.80;99.90;;;;;;5033415;28;20035;-59
2022/01/14 03:59:21;;;;;;;39.45;24.35;;;1.80;99.90;;;;;;5038087;28;20048;-61
2022/01/14 04:02:08;;;;;;;47.50;25.05;;;1.80;99.90;;;;;;5054423;28;20078;-59
2022/01/14 04:04:55;;;;;;;43.28;24.33;;;1.80;99.90;;;;;;5052266;28;20032;-60
2022/01/14 04:07:41;;;;;;;40.83;23.02;;;1.70;99.90;;;;;;5052789;28;20036;-59
2022/01/14 04:10:26;;;;;;;43.60;23.52;;;1.70;99.90;;;;;;5043523;28;20044;-61
2022/01/14 04:13:17;;;;;;;;;;;1.70;99.90;;;;;;5052340;28;20090;-60
2022/01/14 04:16:02;;;;;;;46.67;22.92;;;1.60;99.90;;;;;;5053945;28;19989;-59
2022/01/14 04:18:49;;;;;;;43.92;23.42;;;1.70;99.90;;;;;;5054057;28;20048;-59
2022/01/14 04:21:33;;;;;;;40.95;22.60;;;1.70;99.90;;;;;;5053929;28;20511;-60
2022/01/14 04:24:17;;;;;;;41.33;22.00;;;1.70;99.90;;;;;;5044271;28;20083;-60
2022/01/14 04:27:01;;;;;;;39.78;23.58;;;1.80;99.90;;;;;;5054214;28;20099;-59
2022/01/14 04:29:45;;;;;;;43.53;22.87;;;1.80;99.90;;;;;;5053587;28;20040;-58
2022/01/14 04:32:29;;;;;;;45.25;24.30;;;1.60;99.90;;;;;;5051950;28;20079;-60
2022/01/14 04:35:13;;;;;;;41.88;23.17;;;1.60;99.90;;;;;;5047151;28;20171;-62
2022/01/14 04:37:58;;;;;;;40.35;23.55;;;1.60;99.90;;;;;;5053878;28;20096;-58
2022/01/14 04:40:42;;;;;;;42.28;21.38;;;1.50;99.90;;;;;;5045418;28;20036;-59
2022/01/14 04:43:29;;;;;;;44.33;24.13;;;1.50;99.90;;;;;;5052939;28;20448;-59
2022/01/14 04:46:35;;;;;;;44.95;22.40;;;1.40;99.90;;;;;;5053297;28;20098;-60
2022/01/14 04:49:17;;;;;;;41.90;22.92;;;1.40;99.90;;;;;;5052513;28;20060;-59
2022/01/14 04:52:01;;;;;;;42.55;24.13;;;1.40;99.90;;;;;;5051948;28;20093;-61
2022/01/14 04:54:45;;;;;;;42.03;23.63;;;1.50;99.90;;;;;;5042166;28;20036;-60
2022/01/14 04:57:30;;;;;;;41.85;24.13;;;1.60;99.90;;;;;;5052488;28;20075;-60
2022/01/14 05:00:19;;;;;;;43.10;23.23;;;1.70;99.90;;;;;;5053235;28;20036;-56
2022/01/14 05:03:03;;;;;;;41.55;22.48;;;1.80;99.90;;;;;;5041128;28;20040;-57
2022/01/14 05:05:51;;;;;;;38.08;23.02;;;1.90;99.90;;;;;;5052706;28;20036;-58
2022/01/14 05:08:38;;;;;;;36.35;21.58;;;2.00;99.90;;;;;;5052740;28;20040;-59
2022/01/14 05:11:29;;;;;;;37.95;22.50;;;2.00;99.90;;;;;;5052425;28;20073;-60
2022/01/14 05:14:14;;;;;;;39.08;23.45;;;2.00;99.90;;;;;;5053554;28;20050;-57
2022/01/14 05:16:58;;;;;;;37.22;22.55;;;2.10;99.90;;;;;;5052708;28;20075;-59
2022/01/14 05:19:45;;;;;;;35.05;21.42;;;2.10;99.90;;;;;;5052081;28;20436;-59
2022/01/14 05:22:29;;;;;;;39.05;22.88;;;2.10;99.90;;;;;;5050698;28;20102;-59
2022/01/14 05:25:15;;;;;;;40.63;23.35;;;2.20;99.90;;;;;;5044789;28;20056;-58
2022/01/14 05:27:59;;;;;;;39.17;22.38;;;2.20;99.90;;;;;;5052269;28;20076;-56
2022/01/14 05:30:43;;;;;;;38.37;22.70;;;2.20;99.90;;;;;;5052852;28;20036;-55
2022/01/14 05:33:27;;;;;;;39.60;23.13;;;2.10;99.90;;;;;;5053551;28;20028;-59
2022/01/14 05:36:11;;;;;;;42.45;23.88;;;2.20;99.90;;;;;;5056283;28;20055;-60
2022/01/14 05:38:58;;;;;;;37.78;21.88;;;2.10;99.90;;;;;;5056890;28;20028;-57
2022/01/14 05:41:42;;;;;;;44.33;24.33;;;2.10;99.90;;;;;;5057456;28;20175;-60
2022/01/14 05:44:28;;;;;;;41.65;22.98;;;2.10;99.90;;;;;;5055172;28;20094;-56
2022/01/14 05:47:12;;;;;;;39.72;22.92;;;2.00;99.90;;;;;;5056894;28;20056;-58
2022/01/14 05:49:56;;;;;;;45.83;24.58;;;2.10;99.90;;;;;;5047797;28;20048;-55
2022/01/14 05:52:41;;;;;;;47.65;25.08;;;2.10;99.90;;;;;;5041518;28;20079;-58
2022/01/14 05:55:25;;;;;;;45.75;23.50;;;2.00;99.90;;;;;;5057389;28;20090;-58
2022/01/14 05:58:09;;;;;;;47.00;25.77;;;2.00;99.90;;;;;;5056524;28;20067;-58
2022/01/14 06:00:53;;;;;;;45.85;24.25;;;2.10;99.90;;;;;;5054717;28;20317;-59
2022/01/14 06:03:40;;;;;;;45.42;25.27;;;2.10;99.90;;;;;;5053778;28;20106;-59
2022/01/14 06:06:25;;;;;;;51.95;26.73;;;2.00;99.90;;;;;;5053365;28;20090;-57
2022/01/14 06:09:09;;;;;;;53.58;27.65;;;2.10;99.90;;;;;;5056186;28;20511;-56
2022/01/14 06:11:53;;;;;;;48.30;26.75;;;2.10;99.90;;;;;;5056210;28;20095;-56
2022/01/14 06:14:37;;;;;;;55.45;28.17;;;2.20;99.90;;;;;;5054729;28;20094;-59
2022/01/14 06:17:21;;;;;;;48.58;26.98;;;2.20;99.90;;;;;;5056176;28;20405;-58
2022/01/14 06:20:05;;;;;;;52.75;27.30;;;2.20;99.90;;;;;;5055621;28;20040;-61
2022/01/14 06:22:50;;;;;;;54.88;28.13;;;2.20;99.90;;;;;;5056162;28;20483;-59
2022/01/14 06:25:34;;;;;;;50.47;28.15;;;2.30;99.90;;;;;;5055910;28;20040;-59
2022/01/14 06:28:18;;;;;;;55.70;29.27;;;2.30;99.90;;;;;;5054736;28;20397;-58
2022/01/14 06:31:02;;;;;;;52.40;28.75;;;2.30;99.90;;;;;;5055882;28;20036;-57
2022/01/14 06:33:46;;;;;;;61.08;30.63;;;2.50;99.90;;;;;;5050139;28;20040;-63
2022/01/14 06:36:30;;;;;;;54.90;27.58;;;2.60;99.90;;;;;;5054526;28;20032;-61
2022/01/14 06:39:15;;;;;;;54.55;28.70;;;2.60;99.90;;;;;;5054609;28;20051;-60
2022/01/14 06:41:58;;;;;;;61.85;32.05;;;2.60;99.90;;;;;;5053876;28;20036;-63
2022/01/14 06:44:42;;;;;;;59.03;32.17;;;2.60;99.90;;;;;;5054850;28;20068;-63
2022/01/14 06:47:26;;;;;;;61.53;31.02;;;2.50;99.90;;;;;;5054015;28;20160;-61
2022/01/14 06:50:11;;;;;;;58.50;31.10;;;2.50;99.90;;;;;;5045560;28;20515;-61
2022/01/14 06:52:55;;;;;;;62.63;31.25;;;2.50;99.90;;;;;;5053831;28;20122;-60
2022/01/14 06:55:39;;;;;;;53.28;30.90;;;2.70;99.90;;;;;;5054794;28;20515;-59
2022/01/14 06:58:23;;;;;;;53.40;30.42;;;2.70;99.90;;;;;;5055726;28;20115;-59
2022/01/14 07:01:07;;;;;;;64.30;32.38;;;2.70;99.90;;;;;;5055566;28;20424;-59
2022/01/14 07:03:51;;;;;;;68.85;34.08;;;2.50;99.90;;;;;;5055338;28;20055;-58
2022/01/14 07:06:37;;;;;;;67.50;31.08;;;2.50;99.90;;;;;;5054523;28;20464;-57
2022/01/14 07:09:22;;;;;;;68.18;33.65;;;2.60;99.90;;;;;;5053453;28;20123;-57
2022/01/14 07:12:07;;;;;;;62.00;30.67;;;2.60;99.90;;;;;;5055436;28;20059;-62
2022/01/14 07:14:52;;;;;;;60.25;31.63;;;2.70;99.90;;;;;;5055411;28;20044;-63
2022/01/14 07:17:37;;;;;;;55.45;28.42;;;2.70;99.90;;;;;;5055198;28;20401;-58
2022/01/14 07:20:21;;;;;;;54.10;29.42;;;2.80;99.90;;;;;;5054894;28;20396;-66
2022/01/14 07:23:05;;;;;;;59.97;30.42;;;2.80;99.90;;;;;;5053489;28;20087;-62
2022/01/14 07:25:49;;;;;;;57.80;32.33;;;2.60;99.90;;;;;;5039071;28;20554;-64
2022/01/14 07:28:33;;;;;;;62.20;32.47;;;2.70;99.90;;;;;;5054480;28;20110;-58
2022/01/14 07:31:17;;;;;;;63.92;32.28;;;2.70;99.90;;;;;;5054584;28;20044;-57
2022/01/14 07:34:01;;;;;;;60.38;30.75;;;2.60;99.90;;;;;;5047682;28;20041;-57
2022/01/14 07:36:46;;;;;;;60.38;28.65;;;2.60;99.90;;;;;;5043997;28;20055;-59
2022/01/14 07:39:30;;;;;;;59.65;31.67;;;2.50;99.90;;;;;;5047500;28;20376;-59
2022/01/14 07:42:14;;;;;;;62.20;30.58;;;2.50;99.90;;;;;;5053268;28;20032;-60
2022/01/14 07:44:59;;;;;;;63.00;31.42;;;2.60;99.90;;;;;;5053172;28;20028;-59
2022/01/14 07:47:43;;;;;;;53.70;29.00;;;2.60;99.90;;;;;;5051918;28;20027;-58
2022/01/14 07:50:27;;;;;;;57.58;30.05;;;2.70;99.90;;;;;;5064627;28;20047;-58
2022/01/14 07:53:11;;;;;;;53.60;27.92;;;2.90;99.90;;;;;;5052035;28;20024;-60
2022/01/14 07:55:56;;;;;;;56.45;29.17;;;2.80;99.90;;;;;;5054107;28;20060;-57
2022/01/14 07:58:41;;;;;;;58.30;31.17;;;2.80;99.90;;;;;;5051810;28;20128;-56
2022/01/14 08:01:27;;;;;;;52.40;28.35;;;2.70;99.90;;;;;;5052708;28;20039;-56
2022/01/14 08:04:13;;;;;;;62.42;30.27;;;2.70;99.90;;;;;;5053366;28;20443;-58
2022/01/14 08:07:08;;;;;;;51.53;29.77;;;2.60;99.90;;;;;;5053940;28;20079;-58
2022/01/14 08:09:52;;;;;;;56.97;28.97;;;2.70;99.90;;;;;;5051961;28;20040;-59
2022/01/14 08:12:36;;;;;;;65.75;30.60;;;2.80;99.90;;;;;;5045021;28;20285;-57
2022/01/14 08:15:20;;;;;;;54.57;28.10;;;2.80;99.90;;;;;;5053615;28;20078;-57
2022/01/14 08:18:06;;;;;;;56.53;29.35;;;2.70;99.90;;;;;;5051744;28;20052;-57
2022/01/14 08:20:51;;;;;;;59.05;30.40;;;2.70;99.90;;;;;;5054013;28;20092;-57
2022/01/14 08:23:35;;;;;;;58.40;30.38;;;2.60;99.90;;;;;;5053595;28;20094;-57
2022/01/14 08:26:19;;;;;;;60.28;31.30;;;2.50;99.90;;;;;;5053424;28;20044;-57
2022/01/14 08:29:03;;;;;;;57.10;31.75;;;2.30;99.90;;;;;;5048114;28;20074;-57
2022/01/14 08:31:47;;;;;;;67.03;32.58;;;2.30;99.90;;;;;;5051447;28;20110;-56
2022/01/14 08:34:31;;;;;;;60.97;31.60;;;2.30;99.90;;;;;;5052053;28;20044;-55
2022/01/14 08:37:18;;;;;;;70.22;32.53;;;2.40;99.90;;;;;;5049795;28;20032;-57
2022/01/14 08:40:04;;;;;;;61.47;31.15;;;2.40;99.90;;;;;;5052901;28;20036;-59
2022/01/14 08:42:53;;;;;;;60.85;32.67;;;2.30;99.90;;;;;;5051745;28;20044;-57
2022/01/14 08:45:37;;;;;;;70.70;32.33;;;2.30;99.90;;;;;;5050707;28;20096;-55
2022/01/14 08:48:22;;;;;;;53.22;30.63;;;2.30;99.90;;;;;;5052672;28;20590;-57
2022/01/14 08:51:06;;;;;;;64.20;31.27;;;2.30;99.90;;;;;;5050390;28;20106;-57
2022/01/14 08:53:51;;;;;;;;;;;2.20;99.90;;;;;;5052892;28;20059;-59
2022/01/14 08:56:35;;;;;;;63.50;30.45;;;2.00;99.90;;;;;;5051045;28;19921;-56
2022/01/14 08:59:19;;;;;;;71.28;32.72;;;2.10;99.90;;;;;;5043678;28;20098;-57
2022/01/14 09:02:04;;;;;;;63.90;33.33;;;2.10;99.90;;;;;;5049248;28;20036;-58
2022/01/14 09:04:48;;;;;;;;;;;2.20;99.90;;;;;;5053048;28;20476;-58
2022/01/14 09:07:33;;;;;;;55.28;29.48;;;2.20;99.90;;;;;;5046685;28;19919;-57
2022/01/14 09:10:18;;;;;;;66.60;32.70;;;2.30;99.90;;;;;;5052424;28;20090;-56
2022/01/14 09:13:03;;;;;;;60.33;30.77;;;2.20;99.90;;;;;;5046549;28;20075;-53
2022/01/14 09:15:47;;;;;;;58.42;29.98;;;2.10;99.90;;;;;;5033017;28;20091;-55
2022/01/14 09:18:32;;;;;;;65.97;34.03;;;2.10;99.90;;;;;;5036752;28;20122;-56
2022/01/14 09:21:17;;;;;;;64.87;32.10;;;2.10;99.90;;;;;;5051342;28;20044;-62
2022/01/14 09:24:04;;;;;;;55.63;30.08;;;2.20;99.90;;;;;;5052365;28;20066;-55
2022/01/14 09:26:51;;;;;;;60.00;30.13;;;2.20;99.90;;;;;;5040868;28;20080;-58
2022/01/14 09:29:35;;;;;;;55.00;29.65;;;2.40;99.90;;;;;;5051215;28;20091;-56
2022/01/14 09:32:20;;;;;;;58.20;29.73;;;2.50;99.90;;;;;;5047724;28;20105;-61
2022/01/14 09:35:07;;;;;;;59.72;31.27;;;2.50;99.90;;;;;;5060087;28;20482;-60
2022/01/14 09:37:52;;;;;;;53.28;29.50;;;2.30;99.90;;;;;;5050159;28;20546;-57
2022/01/14 09:40:41;;;;;;;55.28;30.23;;;2.40;99.90;;;;;;5049138;28;20055;-60
2022/01/14 09:43:25;;;;;;;60.15;30.88;;;2.40;99.90;;;;;;5050482;28;20052;-57
2022/01/14 09:46:11;;;;;;;59.72;29.63;;;2.30;99.90;;;;;;5043678;28;20495;-59
2022/01/14 09:48:55;;;;;;;65.03;32.20;;;2.30;99.90;;;;;;5050418;28;20051;-54
2022/01/14 09:51:39;;;;;;;61.65;30.85;;;2.30;99.90;;;;;;5049856;28;20447;-57
2022/01/14 09:54:25;;;;;;;61.25;31.27;;;2.20;99.90;;;;;;5051070;28;20082;-55
2022/01/14 09:57:11;;;;;;;69.63;33.65;;;2.20;99.90;;;;;;5049532;28;20067;-58
2022/01/14 09:59:55;;;;;;;66.57;34.05;;;2.20;99.90;;;;;;5045997;28;20028;-59
2022/01/14 10:02:43;;;;;;;68.40;35.38;;;2.30;99.90;;;;;;5037854;28;20036;-59
2022/01/14 10:05:38;;;;;;;68.15;35.33;;;2.50;99.90;;;;;;5051598;28;20048;-58
2022/01/14 10:08:26;;;;;;;64.45;34.85;;;3.20;99.90;;;;;;5040554;28;20041;-56
2022/01/14 10:11:11;;;;;;;58.00;32.47;;;3.50;99.90;;;;;;5053159;28;20052;-58
2022/01/14 10:14:08;;;;;;;65.75;32.85;;;3.40;99.90;;;;;;5052592;28;20063;-57
2022/01/14 10:16:57;;;;;;;65.18;38.08;;;3.10;99.90;;;;;;5051658;28;20036;-57
2022/01/14 10:19:44;;;;;;;68.25;37.13;;;2.80;99.90;;;;;;5052389;28;20047;-55
2022/01/14 10:22:34;;;;;;;66.28;35.58;;;2.90;99.90;;;;;;5041560;28;20062;-60
2022/01/14 10:25:20;;;;;;;68.40;34.10;;;3.00;99.90;;;;;;5056463;28;20407;-56
2022/01/14 10:28:19;;;;;;;60.80;33.13;;;3.20;99.90;;;;;;5054963;28;20051;-60
2022/01/14 10:31:05;;;;;;;58.88;32.42;;;3.10;99.90;;;;;;5057133;28;20365;-63
2022/01/14 10:33:49;;;;;;;61.03;31.67;;;3.20;99.90;;;;;;5056960;28;20171;-59
2022/01/14 10:36:33;;;;;;;61.15;32.08;;;3.30;99.90;;;;;;5058594;28;20436;-57
2022/01/14 10:39:26;;;;;;;52.15;30.50;;;3.50;99.90;;;;;;5057876;28;20047;-56
2022/01/14 10:42:34;;;;;;;54.45;29.92;;;3.40;99.90;;;;;;5055958;28;20044;-57
2022/01/14 10:45:24;;;;;;;46.00;25.35;;;3.50;99.90;;;;;;5056309;28;20071;-58
2022/01/14 10:48:16;;;;;;;46.83;25.42;;;3.60;99.90;;;;;;5055109;28;20495;-58
2022/01/14 10:51:04;;;;;;;41.13;22.90;;;3.50;99.90;;;;;;5056996;28;20036;-55
2022/01/14 10:53:51;;;;;;;40.63;23.30;;;3.50;99.90;;;;;;5056254;28;20036;-55
2022/01/14 10:56:35;;;;;;;36.95;21.48;;;3.60;99.90;;;;;;5055566;28;20136;-52
2022/01/14 10:59:28;;;;;;;37.70;21.63;;;3.80;99.90;;;;;;5055730;28;20546;-57
2022/01/14 11:02:32;;;;;;;41.83;22.77;;;3.70;99.90;;;;;;5055492;28;20044;-58
2022/01/14 11:05:19;;;;;;;39.25;21.27;;;3.70;99.90;;;;;;5055527;28;20040;-59
2022/01/14 11:08:05;;;;;;;35.33;21.55;;;3.70;99.90;;;;;;5055757;28;20031;-60
2022/01/14 11:10:49;;;;;;;38.45;23.33;;;3.70;99.90;;;;;;5056196;28;20135;-57
2022/01/14 11:13:35;;;;;;;35.33;20.95;;;3.70;99.90;;;;;;5055258;28;20039;-56
2022/01/14 11:16:19;;;;;;;35.63;21.23;;;3.80;99.90;;;;;;5055388;28;20072;-57
2022/01/14 11:19:07;;;;;;;36.40;21.45;;;3.70;99.90;;;;;;5040913;28;20606;-58
2022/01/14 11:24:54;;;;;;;35.33;20.15;;;3.70;99.90;;;;;;5056457;28;20551;-57
2022/01/14 11:27:39;;;;;;;31.55;19.48;;;3.90;99.90;;;;;;5055097;28;20056;-56
2022/01/14 11:30:38;;;;;;;31.85;19.67;;;3.90;99.90;;;;;;5055196;28;20082;-54
2022/01/14 11:33:39;;;;;;;32.38;19.88;;;4.00;99.90;;;;;;5054629;28;20125;-59
2022/01/14 11:36:24;;;;;;;32.25;20.40;;;3.90;99.90;;;;;;5054968;28;20061;-57
2022/01/14 11:39:29;;;;;;;32.65;20.40;;;3.90;99.90;;;;;;5054893;28;20079;-56
2022/01/14 11:42:14;;;;;;;34.60;19.70;;;3.90;99.90;;;;;;5053346;28;20044;-58
2022/01/14 11:45:01;;;;;;;;;;;4.00;99.90;;;;;;5054470;28;20044;-52
2022/01/14 11:47:50;;;;;;;34.17;19.15;;;4.00;99.90;;;;;;5054250;28;19919;-56
2022/01/14 11:50:36;;;;;;;33.00;20.88;;;4.00;99.90;;;;;;5053511;28;20040;-56
2022/01/14 11:53:36;;;;;;;35.40;20.58;;;3.90;99.90;;;;;;5052942;28;20024;-53
2022/01/14 11:56:30;;;;;;;31.65;19.48;;;3.90;99.90;;;;;;5054637;28;20039;-52
2022/01/14 11:59:22;;;;;;;33.00;19.85;;;4.00;99.90;;;;;;5054255;28;20059;-55
2022/01/14 12:02:29;;;;;;;32.88;20.92;;;3.90;99.90;;;;;;5054067;28;20338;-55
2022/01/14 12:05:15;;;;;;;38.00;22.10;;;4.00;99.90;;;;;;5054046;28;20511;-53
2022/01/14 12:08:03;;;;;;;34.05;20.27;;;4.00;99.90;;;;;;5039699;28;20082;-54
2022/01/14 12:10:50;;;;;;;35.50;20.73;;;4.00;99.90;;;;;;5054349;28;20059;-55
2022/01/14 12:13:55;;;;;;;33.83;20.48;;;4.10;99.90;;;;;;5054143;28;20135;-52
2022/01/14 12:16:49;;;;;;;36.17;20.23;;;4.10;99.90;;;;;;5054083;28;20503;-53
2022/01/14 12:19:38;;;;;;;35.15;20.98;;;4.00;99.90;;;;;;5053470;28;20040;-53
2022/01/14 12:22:23;;;;;;;30.20;19.42;;;4.00;99.90;;;;;;5053333;28;20040;-53
2022/01/14 12:25:08;;;;;;;32.30;20.45;;;4.00;99.90;;;;;;5053757;28;20164;-54
2022/01/14 12:27:52;;;;;;;32.00;19.98;;;4.10;99.90;;;;;;5053341;28;20120;-57
2022/01/14 12:30:36;;;;;;;36.43;22.80;;;4.10;99.90;;;;;;5053845;28;20067;-56
2022/01/14 12:33:40;;;;;;;32.47;20.23;;;4.10;99.90;;;;;;5067451;28;20091;-56
2022/01/14 12:36:25;;;;;;;35.83;20.00;;;4.10;99.90;;;;;;5033798;28;20044;-56
2022/01/14 12:39:09;;;;;;;33.37;20.37;;;4.10;99.90;;;;;;5053636;28;20028;-55
2022/01/14 12:41:55;;;;;;;;;;;4.20;99.90;;;;;;5053935;28;20059;-52
2022/01/14 12:44:40;;;;;;;32.58;18.65;;;4.20;99.90;;;;;;5053154;28;20332;-54
2022/01/14 12:47:26;;;;;;;32.92;20.63;;;4.30;99.90;;;;;;5053389;28;20060;-57
2022/01/14 12:50:11;;;;;;;30.23;19.63;;;4.30;99.90;;;;;;5052894;28;20091;-55
2022/01/14 12:52:59;;;;;;;31.98;19.42;;;4.20;99.90;;;;;;5052460;28;20091;-53
2022/01/14 12:55:43;;;;;;;29.02;17.63;;;4.40;99.90;;;;;;5053756;28;20067;-56
2022/01/14 12:58:30;;;;;;;34.28;19.77;;;4.30;99.90;;;;;;5053302;28;20055;-57
2022/01/14 13:01:14;;;;;;;30.70;19.73;;;4.20;99.90;;;;;;5051893;28;20036;-54
2022/01/14 13:04:01;;;;;;;33.92;18.55;;;4.10;99.90;;;;;;5053100;28;20090;-54
2022/01/14 13:06:54;;;;;;;35.38;21.90;;;4.00;99.90;;;;;;5052998;28;20106;-56
2022/01/14 13:09:43;;;;;;;33.08;19.73;;;3.90;99.90;;;;;;5053134;28;20083;-50
2022/01/14 13:12:32;;;;;;;35.58;20.05;;;4.00;99.90;;;;;;5052534;28;20124;-56
2022/01/14 13:15:22;;;;;;;31.35;20.05;;;4.10;99.90;;;;;;5052583;28;20094;-56
2022/01/14 13:18:14;;;;;;;34.13;20.70;;;4.10;99.90;;;;;;5053107;28;20083;-55
2022/01/14 13:20:59;;;;;;;34.15;19.38;;;4.10;99.90;;;;;;5032038;28;20044;-56
2022/01/14 13:23:45;;;;;;;;;;;4.20;99.90;;;;;;5049473;28;20032;-56
2022/01/14 13:26:29;;;;;;;33.67;20.17;;;4.20;99.90;;;;;;5053004;28;19947;-56
2022/01/14 13:29:13;;;;;;;33.83;20.35;;;4.20;99.90;;;;;;5051802;28;20099;-53
2022/01/14 13:31:58;;;;;;;32.55;20.58;;;4.20;99.90;;;;;;5051819;28;20059;-53
2022/01/14 13:34:51;;;;;;;34.05;20.17;;;4.20;99.90;;;;;;5065773;28;20043;-56
2022/01/14 13:37:38;;;;;;;36.13;20.67;;;4.40;99.90;;;;;;5037976;28;20044;-54
2022/01/14 13:40:29;;;;;;;32.90;20.90;;;4.40;99.90;;;;;;5053183;28;20127;-55
2022/01/14 13:43:20;;;;;;;33.10;21.20;;;4.40;99.90;;;;;;5052348;28;20083;-56
2022/01/14 13:46:13;;;;;;;32.20;20.27;;;4.40;99.90;;;;;;5052233;28;20036;-55
2022/01/14 13:48:57;;;;;;;37.85;22.13;;;4.50;99.90;;;;;;5051485;28;20698;-55
2022/01/14 13:51:42;;;;;;;36.50;22.98;;;4.40;99.90;;;;;;5037581;28;20128;-54
2022/01/14 13:54:26;;;;;;;44.37;23.53;;;4.30;99.90;;;;;;5052433;28;20055;-52
2022/01/14 13:57:14;;;;;;;38.95;23.33;;;4.30;99.90;;;;;;5054178;28;20092;-51
2022/01/14 14:00:29;;;;;;;45.20;24.48;;;4.20;99.90;;;;;;5057241;28;20043;-54
2022/01/14 14:03:25;;;;;;;41.60;22.50;;;4.10;99.90;;;;;;5054934;28;20032;-52
2022/01/14 14:06:18;;;;;;;43.03;24.45;;;4.20;99.90;;;;;;5055784;28;20318;-54
2022/01/14 14:09:13;;;;;;;45.63;24.42;;;4.30;99.90;;;;;;5042224;28;20113;-56
2022/01/14 14:12:23;;;;;;;46.30;23.73;;;4.30;99.90;;;;;;5055995;28;20036;-53
2022/01/14 14:18:12;;;;;;;45.03;25.98;;;4.40;99.90;;;;;;5055864;28;20087;-55
2022/01/14 14:21:15;;;;;;;49.70;25.10;;;4.30;99.90;;;;;;5054610;28;20043;-56
2022/01/14 14:24:02;;;;;;;43.22;24.95;;;4.40;99.90;;;;;;5055787;28;20075;-55
2022/01/14 14:26:48;;;;;;;38.97;22.98;;;4.40;99.90;;;;;;5055495;28;20036;-52
2022/01/14 14:29:33;;;;;;;44.85;25.15;;;4.40;99.90;;;;;;5055848;28;20432;-57
2022/01/14 14:32:27;;;;;;;38.90;22.33;;;4.30;99.90;;;;;;5055760;28;20087;-54
2022/01/14 14:35:18;;;;;;;42.10;23.65;;;4.40;99.90;;;;;;5068222;28;20392;-56
2022/01/14 14:38:07;;;;;;;43.42;23.75;;;4.40;99.90;;;;;;5055936;28;20503;-56
2022/01/14 14:40:58;;;;;;;47.28;25.48;;;4.50;99.90;;;;;;5055283;28;20450;-57
2022/01/14 14:43:43;;;;;;;44.70;24.10;;;4.50;99.90;;;;;;5056004;28;20028;-58